createdAt,value
2018-09-03T00:00:42.016Z,88.16
2018-09-03T00:03:10.386Z,88.16
2018-09-03T00:05:38.700Z,88.94
2018-09-03T00:08:07.173Z,89.89
2018-09-03T00:10:35.486Z,89.13
2018-09-03T00:13:03.797Z,89.25
2018-09-03T00:15:32.123Z,88.77
2018-09-03T00:18:00.451Z,88.54
2018-09-03T00:20:28.925Z,88.80
2018-09-03T00:22:57.276Z,87.93
2018-09-03T00:25:25.586Z,88.18
2018-09-03T00:27:53.929Z,87.58
2018-09-03T00:30:22.278Z,87.79
2018-09-03T00:32:55.715Z,88.33
2018-09-03T00:35:29.324Z,87.83
2018-09-03T00:39:00.619Z,88.92
2018-09-03T00:41:34.206Z,88.36
2018-09-03T00:44:07.851Z,88.90
2018-09-03T00:46:41.455Z,88.07
2018-09-03T00:49:09.774Z,87.91
2018-09-03T00:51:38.093Z,87.57
2018-09-03T00:54:06.442Z,88.02
2018-09-03T00:56:34.749Z,87.80
2018-09-03T00:59:03.066Z,88.18
2018-09-03T01:01:31.365Z,88.89
2018-09-03T01:03:59.679Z,88.19
2018-09-03T01:06:27.990Z,87.88
2018-09-03T01:08:56.318Z,88.95
2018-09-03T01:11:25.593Z,89.48
2018-09-03T01:13:54.781Z,89.91
2018-09-03T01:16:23.143Z,89.86
2018-09-03T01:18:54.892Z,89.56
2018-09-03T01:21:23.678Z,89.54
2018-09-03T01:23:52.319Z,88.80
2018-09-03T01:26:20.678Z,88.46
2018-09-03T01:28:48.973Z,88.34
2018-09-03T01:31:20.378Z,89.27
2018-09-03T01:33:53.143Z,88.28
2018-09-03T01:36:21.830Z,89.45
2018-09-03T01:38:50.165Z,89.12
2018-09-03T01:41:19.203Z,87.88
2018-09-03T01:43:48.010Z,89.44
2018-09-03T01:46:16.594Z,89.65
2018-09-03T01:48:44.999Z,89.07
2018-09-03T01:51:13.355Z,89.03
2018-09-03T01:53:41.654Z,88.95
2018-09-03T01:56:09.963Z,89.00
2018-09-03T01:58:38.283Z,88.46
2018-09-03T02:01:06.837Z,88.73
2018-09-03T02:03:35.469Z,88.75
2018-09-03T02:06:03.955Z,88.74
2018-09-03T02:08:32.500Z,89.49
2018-09-03T02:11:00.938Z,89.40
2018-09-03T02:13:30.413Z,90.21
2018-09-03T02:15:58.910Z,91.21
2018-09-03T02:18:27.509Z,91.39
2018-09-03T02:20:56.224Z,92.27
2018-09-03T02:23:24.785Z,92.46
2018-09-03T02:25:53.424Z,94.27
2018-09-03T02:28:21.944Z,94.18
2018-09-03T02:30:50.381Z,93.84
2018-09-03T02:33:18.759Z,93.86
2018-09-03T02:35:47.210Z,93.87
2018-09-03T02:38:15.567Z,95.09
2018-09-03T02:40:43.960Z,94.81
2018-09-03T02:43:12.321Z,94.08
2018-09-03T02:45:40.726Z,94.38
2018-09-03T02:48:09.135Z,95.35
2018-09-03T02:50:37.676Z,95.62
2018-09-03T02:53:06.106Z,95.40
2018-09-03T02:55:34.499Z,96.48
2018-09-03T02:58:02.850Z,96.40
2018-09-03T03:00:31.243Z,96.01
2018-09-03T03:02:59.741Z,96.41
2018-09-03T03:05:29.144Z,96.94
2018-09-03T03:07:57.902Z,96.80
2018-09-03T03:10:26.397Z,96.96
2018-09-03T03:12:54.724Z,97.20
2018-09-03T03:15:23.140Z,96.10
2018-09-03T03:17:51.515Z,95.96
2018-09-03T03:20:19.928Z,95.49
2018-09-03T03:22:48.349Z,94.66
2018-09-03T03:25:16.743Z,95.08
2018-09-03T03:27:45.115Z,96.12
2018-09-03T03:30:13.517Z,96.26
2018-09-03T03:32:41.943Z,95.18
2018-09-03T03:35:11.684Z,96.04
2018-09-03T03:37:44.191Z,96.10
2018-09-03T03:40:12.665Z,96.43
2018-09-03T03:42:41.024Z,96.49
2018-09-03T03:45:09.518Z,97.05
2018-09-03T03:47:37.975Z,96.21
2018-09-03T03:50:06.488Z,95.90
2018-09-03T03:52:34.862Z,96.35
2018-09-03T03:55:03.643Z,95.88
2018-09-03T03:57:32.014Z,95.96
2018-09-03T04:00:00.495Z,96.31
2018-09-03T04:02:28.969Z,96.69
2018-09-03T04:04:57.369Z,96.77
2018-09-03T04:07:25.819Z,96.54
2018-09-03T04:09:54.219Z,95.75
2018-09-03T04:12:22.595Z,94.76
2018-09-03T04:14:51.005Z,94.79
2018-09-03T04:17:19.402Z,94.64
2018-09-03T04:19:51.806Z,94.92
2018-09-03T04:22:20.172Z,95.26
2018-09-03T04:24:48.523Z,95.90
2018-09-03T04:27:16.941Z,95.37
2018-09-03T04:29:45.318Z,95.31
2018-09-03T04:32:13.749Z,95.03
2018-09-03T04:34:42.130Z,94.77
2018-09-03T04:37:10.522Z,95.37
2018-09-03T04:39:38.912Z,95.57
2018-09-03T04:42:07.313Z,96.03
2018-09-03T04:44:35.672Z,96.35
2018-09-03T04:47:04.132Z,96.35
2018-09-03T04:49:32.504Z,96.66
2018-09-03T04:52:00.937Z,97.64
2018-09-03T04:54:29.434Z,97.73
2018-09-03T04:56:57.825Z,97.50
2018-09-03T04:59:26.205Z,96.69
2018-09-03T05:01:54.593Z,97.06
2018-09-03T05:04:22.968Z,97.13
2018-09-03T05:06:51.447Z,96.96
2018-09-03T05:09:19.947Z,96.35
2018-09-03T05:11:48.637Z,97.00
2018-09-03T05:14:17.136Z,97.00
2018-09-03T05:16:45.556Z,97.29
2018-09-03T05:19:13.988Z,96.68
2018-09-03T05:21:42.540Z,96.36
2018-09-03T05:24:10.977Z,96.98
2018-09-03T05:26:39.421Z,96.65
2018-09-03T05:29:07.971Z,96.74
2018-09-03T05:31:36.366Z,96.56
2018-09-03T05:34:04.808Z,96.66
2018-09-03T05:36:33.227Z,97.32
2018-09-03T05:39:01.653Z,96.97
2018-09-03T05:41:30.105Z,96.38
2018-09-03T05:43:58.524Z,97.54
2018-09-03T05:46:27.042Z,97.78
2018-09-03T05:48:55.428Z,96.92
2018-09-03T05:51:23.944Z,97.09
2018-09-03T05:53:52.391Z,97.21
2018-09-03T05:56:20.808Z,97.42
2018-09-03T05:58:49.258Z,97.32
2018-09-03T06:01:17.726Z,97.85
2018-09-03T06:03:46.145Z,97.38
2018-09-03T06:06:14.638Z,95.84
2018-09-03T06:08:43.088Z,96.71
2018-09-03T06:11:11.709Z,97.14
2018-09-03T06:13:41.427Z,95.94
2018-09-03T06:16:09.909Z,96.48
2018-09-03T06:18:38.615Z,95.30
2018-09-03T06:21:07.521Z,95.11
2018-09-03T06:23:36.025Z,93.97
2018-09-03T06:26:04.501Z,93.77
2018-09-03T06:28:32.934Z,94.30
2018-09-03T06:31:01.413Z,95.66
2018-09-03T06:33:29.813Z,94.25
2018-09-03T06:35:58.432Z,92.93
2018-09-03T06:38:27.089Z,93.57
2018-09-03T06:40:55.723Z,94.04
2018-09-03T06:43:24.588Z,93.54
2018-09-03T06:45:53.240Z,92.96
2018-09-03T06:48:21.913Z,93.04
2018-09-03T06:50:50.359Z,93.60
2018-09-03T06:53:19.013Z,92.16
2018-09-03T06:55:47.405Z,92.43
2018-09-03T06:58:15.827Z,92.69
2018-09-03T07:00:44.251Z,91.97
2018-09-03T07:03:12.701Z,91.70
2018-09-03T07:05:41.222Z,90.99
2018-09-03T07:08:09.628Z,91.73
2018-09-03T07:10:38.044Z,90.57
2018-09-03T07:13:07.554Z,90.01
2018-09-03T07:15:36.860Z,90.54
2018-09-03T07:18:05.677Z,90.80
2018-09-03T07:20:34.406Z,90.12
2018-09-03T07:23:03.098Z,90.72
2018-09-03T07:25:31.553Z,91.51
2018-09-03T07:28:00.058Z,91.74
2018-09-03T07:30:28.587Z,91.73
2018-09-03T07:32:57.025Z,90.89
2018-09-03T07:35:25.441Z,90.42
2018-09-03T07:37:53.863Z,90.63
2018-09-03T07:40:22.325Z,90.42
2018-09-03T07:42:50.760Z,90.27
2018-09-03T07:45:19.198Z,91.39
2018-09-03T07:47:47.591Z,91.96
2018-09-03T07:50:16.012Z,91.01
2018-09-03T07:52:44.444Z,92.10
2018-09-03T07:55:12.820Z,90.64
2018-09-03T07:57:41.211Z,91.12
2018-09-03T08:00:09.999Z,91.27
2018-09-03T08:02:38.412Z,89.73
2018-09-03T08:05:07.221Z,89.48
2018-09-03T08:07:35.689Z,88.45
2018-09-03T08:10:04.148Z,87.03
2018-09-03T08:12:32.573Z,87.33
2018-09-03T08:15:00.967Z,86.78
2018-09-03T08:17:29.348Z,86.54
2018-09-03T08:19:57.760Z,85.88
2018-09-03T08:22:26.190Z,87.50
2018-09-03T08:24:54.581Z,87.91
2018-09-03T08:27:23.086Z,87.69
2018-09-03T08:29:51.530Z,88.00
2018-09-03T08:32:19.979Z,86.26
2018-09-03T08:34:48.412Z,86.93
2018-09-03T08:37:16.862Z,86.24
2018-09-03T08:39:45.991Z,87.25
2018-09-03T08:42:14.370Z,86.00
2018-09-03T08:44:42.797Z,85.42
2018-09-03T08:47:11.170Z,85.95
2018-09-03T08:49:39.559Z,85.72
2018-09-03T08:52:08.084Z,86.66
2018-09-03T08:54:36.557Z,86.53
2018-09-03T08:57:04.956Z,86.74
2018-09-03T08:59:33.364Z,88.25
2018-09-03T09:02:01.721Z,86.46
2018-09-03T09:04:30.207Z,86.90
2018-09-03T09:06:59.765Z,87.31
2018-09-03T09:09:28.165Z,87.26
2018-09-03T09:11:56.572Z,87.23
2018-09-03T09:14:24.963Z,86.97
2018-09-03T09:16:53.357Z,88.75
2018-09-03T09:19:21.798Z,89.05
2018-09-03T09:21:50.317Z,89.26
2018-09-03T09:24:18.703Z,89.20
2018-09-03T09:26:47.070Z,89.32
2018-09-03T09:29:15.525Z,89.20
2018-09-03T09:31:46.358Z,89.32
2018-09-03T09:34:14.791Z,89.66
2018-09-03T09:36:47.781Z,90.11
2018-09-03T09:39:16.276Z,90.13
2018-09-03T09:47:22.889Z,90.89
2018-09-03T09:49:51.626Z,90.89
2018-09-03T09:52:20.108Z,90.89
2018-09-03T09:54:48.693Z,90.11
2018-09-03T09:57:17.593Z,90.65
2018-09-03T09:59:46.091Z,91.02
2018-09-03T10:02:17.197Z,89.26
2018-09-03T10:04:45.717Z,90.13
2018-09-03T10:07:14.217Z,91.29
2018-09-03T10:09:42.735Z,91.30
2018-09-03T10:12:11.183Z,91.20
2018-09-03T10:14:42.850Z,90.10
2018-09-03T10:17:11.455Z,92.57
2018-09-03T10:19:41.721Z,91.96
2018-09-03T10:22:09.981Z,92.31
2018-09-03T10:24:38.595Z,92.45
2018-09-03T10:27:07.034Z,91.76
2018-09-03T10:32:20.252Z,91.91
2018-09-03T10:34:51.217Z,92.10
2018-09-03T10:37:21.988Z,91.68
2018-09-03T10:39:58.014Z,90.55
2018-09-03T10:42:53.415Z,91.74
2018-09-03T10:45:24.202Z,90.84
2018-09-03T10:47:55.178Z,91.46
2018-09-03T10:53:15.200Z,91.05
2018-09-03T10:55:45.498Z,91.86
2018-09-03T10:58:16.169Z,90.91
2018-09-03T11:00:46.729Z,89.94
2018-09-03T11:03:27.365Z,90.60
2018-09-03T11:06:08.071Z,91.03
2018-09-03T11:08:47.630Z,91.30
2018-09-03T11:11:16.121Z,91.79
2018-09-03T11:13:44.502Z,92.41
2018-09-03T11:16:14.037Z,92.97
2018-09-03T11:18:42.412Z,92.30
2018-09-03T11:21:10.784Z,91.86
2018-09-03T11:23:42.437Z,92.30
2018-09-03T11:26:10.953Z,90.45
2018-09-03T11:28:39.541Z,91.88
2018-09-03T11:31:07.923Z,91.73
2018-09-03T11:33:36.328Z,91.49
2018-09-03T11:36:13.099Z,89.82
2018-09-03T11:38:41.641Z,89.60
2018-09-03T11:41:10.080Z,90.83
2018-09-03T11:43:38.497Z,91.68
2018-09-03T11:46:08.356Z,90.85
2018-09-03T11:48:37.160Z,90.02
2018-09-03T11:51:10.447Z,87.98
2018-09-03T11:53:38.854Z,88.49
2018-09-03T11:56:07.270Z,90.34
2018-09-03T11:58:35.623Z,90.22
2018-09-03T12:01:04.164Z,89.14
2018-09-03T12:06:09.012Z,86.58
2018-09-03T12:08:46.323Z,86.87
2018-09-03T12:11:15.075Z,86.24
2018-09-03T12:13:44.540Z,86.79
2018-09-03T12:16:17.275Z,86.72
2018-09-03T12:18:47.125Z,85.44
2018-09-03T12:21:18.439Z,86.39
2018-09-03T12:23:47.871Z,84.70
2018-09-03T12:26:34.754Z,82.97
2018-09-03T12:29:07.190Z,85.82
2018-09-03T12:31:36.618Z,87.00
2018-09-03T12:34:09.856Z,84.41
2018-09-03T12:36:39.094Z,84.19
2018-09-03T12:39:23.762Z,84.17
2018-09-03T12:41:52.680Z,84.95
2018-09-03T12:44:36.110Z,84.38
2018-09-03T12:47:07.926Z,83.21
2018-09-03T12:49:39.206Z,83.24
2018-09-03T12:52:11.238Z,83.03
2018-09-03T12:54:51.354Z,82.88
2018-09-03T12:57:25.908Z,82.44
2018-09-03T13:00:18.190Z,80.95
2018-09-03T13:03:01.140Z,82.61
2018-09-03T13:06:07.113Z,82.67
2018-09-03T13:08:47.922Z,82.29
2018-09-03T13:11:45.765Z,81.09
2018-09-03T13:14:17.329Z,80.41
2018-09-03T13:16:52.220Z,80.68
2018-09-03T13:22:27.294Z,79.44
2018-09-03T13:25:02.577Z,79.15
2018-09-03T13:30:24.514Z,80.39
2018-09-03T13:35:43.034Z,79.56
2018-09-03T13:38:14.755Z,80.94
2018-09-03T13:40:45.340Z,79.94
2018-09-03T13:43:19.855Z,79.38
2018-09-03T13:45:52.433Z,81.71
2018-09-03T13:48:46.666Z,81.45
2018-09-03T13:51:28.723Z,80.97
2018-09-03T15:34:44.193Z,79.24
2018-09-03T15:37:13.312Z,79.25
2018-09-03T15:39:41.603Z,79.22
2018-09-03T15:42:09.876Z,79.62
2018-09-03T15:44:38.214Z,79.76
2018-09-03T15:47:06.530Z,79.80
2018-09-03T15:49:34.947Z,79.62
2018-09-03T15:52:03.264Z,78.65
2018-09-03T15:54:31.700Z,79.75
2018-09-03T15:56:59.980Z,80.05
2018-09-03T15:59:28.269Z,79.31
2018-09-03T16:01:56.613Z,80.90
2018-09-03T16:04:25.763Z,81.20
2018-09-03T16:06:54.022Z,81.21
2018-09-03T16:09:22.267Z,80.91
2018-09-03T16:11:50.561Z,83.16
2018-09-03T16:14:18.913Z,83.59
2018-09-03T16:16:47.184Z,83.22
2018-09-03T16:19:15.453Z,84.69
2018-09-03T16:21:43.765Z,84.34
2018-09-03T16:24:12.033Z,83.65
2018-09-03T16:26:40.285Z,84.92
2018-09-03T16:29:08.579Z,86.24
2018-09-03T16:31:36.838Z,86.54
2018-09-03T16:34:05.073Z,86.74
2018-09-03T16:36:33.356Z,86.61
2018-09-03T16:39:01.677Z,86.60
2018-09-03T16:41:30.408Z,87.37
2018-09-03T16:43:58.700Z,86.58
2018-09-03T16:46:27.109Z,87.21
2018-09-03T16:48:55.622Z,86.90
2018-09-03T16:51:25.344Z,87.86
2018-09-03T16:53:53.664Z,88.52
2018-09-03T16:56:32.261Z,88.22
2018-09-03T16:59:00.705Z,89.28
2018-09-03T17:01:29.188Z,89.30
2018-09-03T17:03:57.384Z,89.31
2018-09-03T17:06:25.681Z,89.75
2018-09-03T17:08:54.146Z,89.33
2018-09-03T17:11:22.405Z,89.78
2018-09-03T17:13:50.732Z,90.15
2018-09-03T17:16:19.043Z,90.95
2018-09-03T17:18:47.417Z,91.71
2018-09-03T17:21:15.701Z,91.46
2018-09-03T17:23:44.157Z,91.86
2018-09-03T17:26:12.522Z,90.50
2018-09-03T17:28:40.898Z,90.03
2018-09-03T17:31:09.164Z,90.48
2018-09-03T17:33:37.526Z,90.70
2018-09-03T17:36:06.065Z,91.52
2018-09-03T17:38:34.668Z,91.55
2018-09-03T17:41:03.039Z,91.57
2018-09-03T17:43:31.602Z,91.51
2018-09-03T17:45:59.920Z,91.96
2018-09-03T17:48:28.266Z,91.73
2018-09-03T17:50:56.732Z,91.86
2018-09-03T17:53:25.228Z,92.40
2018-09-03T17:55:54.200Z,91.99
2018-09-03T17:58:22.508Z,92.71
2018-09-03T18:00:50.865Z,92.50
2018-09-03T18:03:19.241Z,92.46
2018-09-03T18:05:47.793Z,92.75
2018-09-03T18:08:16.106Z,92.31
2018-09-03T18:10:46.617Z,91.57
2018-09-03T18:13:15.169Z,91.49
2018-09-03T18:15:43.553Z,92.94
2018-09-03T18:18:12.653Z,93.17
2018-09-03T18:20:40.984Z,93.94
2018-09-03T18:23:09.294Z,93.24
2018-09-03T18:25:39.233Z,92.92
2018-09-03T18:28:07.693Z,94.21
2018-09-03T18:30:36.016Z,93.81
2018-09-03T18:33:04.412Z,94.57
2018-09-03T18:35:32.942Z,94.17
2018-09-03T18:38:01.568Z,94.65
2018-09-03T18:40:29.813Z,94.63
2018-09-03T18:42:58.153Z,94.61
2018-09-03T18:45:26.393Z,95.35
2018-09-03T18:47:54.866Z,95.39
2018-09-03T18:50:23.145Z,95.54
2018-09-03T18:52:51.527Z,95.00
2018-09-03T18:55:19.862Z,95.11
2018-09-03T18:57:48.602Z,94.28
2018-09-03T19:00:16.952Z,94.87
2018-09-03T19:02:45.695Z,94.82
2018-09-03T19:05:13.958Z,94.81
2018-09-03T19:07:42.342Z,94.89
2018-09-03T19:10:10.644Z,95.47
2018-09-03T19:12:39.211Z,95.04
2018-09-03T19:15:07.891Z,94.55
2018-09-03T19:17:36.284Z,94.46
2018-09-03T19:20:04.638Z,93.84
2018-09-03T19:22:32.936Z,94.67
2018-09-03T19:25:01.357Z,94.32
2018-09-03T19:27:30.078Z,94.09
2018-09-03T19:29:58.529Z,93.83
2018-09-03T19:32:27.019Z,93.47
2018-09-03T19:34:55.347Z,93.29
2018-09-03T19:37:23.762Z,93.69
2018-09-03T19:39:52.059Z,94.18
2018-09-03T19:42:20.716Z,94.39
2018-09-03T19:44:49.029Z,94.14
2018-09-03T19:47:17.418Z,94.64
2018-09-03T19:49:45.663Z,95.04
2018-09-03T19:52:14.267Z,95.56
2018-09-03T19:54:42.721Z,96.48
2018-09-03T19:57:11.398Z,96.26
2018-09-03T19:59:41.078Z,96.08
2018-09-03T20:02:09.480Z,95.25
2018-09-03T20:04:37.801Z,95.79
2018-09-03T20:07:06.393Z,96.63
2018-09-03T20:09:35.198Z,96.18
2018-09-03T20:12:03.474Z,95.60
2018-09-03T20:14:31.805Z,96.28
2018-09-03T20:17:00.122Z,96.29
2018-09-03T20:19:28.466Z,95.74
2018-09-03T20:21:57.132Z,95.88
2018-09-03T20:24:25.500Z,96.03
2018-09-03T20:26:53.759Z,96.21
2018-09-03T20:29:22.066Z,95.86
2018-09-03T20:31:53.172Z,95.91
2018-09-03T20:34:21.456Z,96.04
2018-09-03T20:36:49.796Z,96.26
2018-09-03T20:39:18.424Z,95.61
2018-09-03T20:41:46.744Z,95.14
2018-09-03T20:44:16.289Z,96.00
2018-09-03T20:46:44.657Z,95.78
2018-09-03T20:49:13.397Z,95.82
2018-09-03T20:51:41.836Z,96.47
2018-09-03T20:54:10.094Z,97.18
2018-09-03T20:56:38.363Z,96.09
2018-09-03T20:59:06.633Z,96.04
2018-09-03T21:01:34.973Z,96.36
2018-09-03T21:04:03.215Z,95.61
2018-09-03T21:06:31.520Z,96.10
2018-09-03T21:08:59.801Z,95.77
2018-09-03T21:11:28.228Z,96.05
2018-09-03T21:13:56.484Z,96.08
2018-09-03T21:16:24.805Z,96.77
2018-09-03T21:18:53.171Z,96.92
2018-09-03T21:21:21.481Z,97.00
2018-09-03T21:23:49.715Z,96.79
2018-09-03T21:26:18.022Z,96.63
2018-09-03T21:28:46.290Z,96.76
2018-09-03T21:31:14.565Z,96.91
2018-09-03T21:33:42.858Z,96.64
2018-09-03T21:36:11.122Z,96.56
2018-09-03T21:38:39.415Z,96.59
2018-09-03T21:41:07.753Z,96.23
2018-09-03T21:43:36.022Z,96.52
2018-09-03T21:46:04.338Z,97.86
2018-09-03T21:48:32.609Z,97.07
2018-09-03T21:51:00.886Z,97.32
2018-09-03T21:53:29.237Z,97.15
2018-09-03T21:55:57.492Z,97.08
2018-09-03T21:58:25.789Z,97.64
2018-09-03T22:00:54.012Z,97.43
2018-09-03T22:03:22.357Z,97.60
2018-09-03T22:05:50.681Z,97.92
2018-09-03T22:08:18.942Z,97.37
2018-09-03T22:10:47.198Z,98.07
2018-09-03T22:13:15.554Z,97.49
2018-09-03T22:15:43.816Z,97.85
2018-09-03T22:18:12.486Z,97.29
2018-09-03T22:20:40.889Z,97.29
2018-09-03T22:23:09.409Z,97.26
2018-09-03T22:25:37.923Z,98.21
2018-09-03T22:28:06.425Z,97.63
2018-09-03T22:30:34.792Z,97.77
2018-09-03T22:33:03.093Z,97.78
2018-09-03T22:35:31.419Z,97.93
2018-09-03T22:37:59.821Z,98.41
2018-09-03T22:40:28.146Z,98.37
2018-09-03T22:42:56.512Z,98.26
2018-09-03T22:45:24.819Z,98.05
2018-09-03T22:47:53.174Z,98.22
2018-09-03T22:50:21.511Z,97.73
2018-09-03T22:52:49.831Z,98.36
2018-09-03T22:55:18.138Z,98.22
2018-09-03T22:57:46.471Z,97.43
2018-09-03T23:00:14.798Z,97.94
2018-09-03T23:02:43.693Z,98.16
2018-09-03T23:05:12.643Z,98.65
2018-09-03T23:07:41.012Z,99.21
2018-09-03T23:10:09.985Z,99.56
2018-09-03T23:12:38.327Z,99.10
2018-09-03T23:15:07.400Z,98.87
2018-09-03T23:17:35.744Z,98.69
2018-09-03T23:20:04.095Z,98.40
2018-09-03T23:22:32.426Z,98.74
2018-09-03T23:25:00.743Z,98.60
2018-09-03T23:27:29.090Z,98.73
2018-09-03T23:29:57.780Z,97.87
2018-09-03T23:32:26.126Z,97.79
2018-09-03T23:34:54.476Z,98.13
2018-09-03T23:37:22.827Z,98.28
2018-09-03T23:39:51.231Z,98.30
2018-09-03T23:42:19.872Z,98.41
2018-09-03T23:44:48.226Z,99.12
2018-09-03T23:47:16.652Z,99.33
2018-09-03T23:49:45.109Z,98.69
2018-09-03T23:52:13.405Z,99.21
2018-09-03T23:54:41.818Z,98.53
2018-09-03T23:57:10.327Z,98.90
2018-09-03T23:59:38.708Z,98.34
